sensor_id;sensor_type;location;lat;lon;timestamp;temperature;humidity
11538;DHT22;50159;49.426;11.182;2023-09-19T00:00:22;16.20;99.90
11538;DHT22;50159;49.426;11.182;2023-09-19T00:02:54;16.10;99.90
11538;DHT22;50159;49.426;11.182;2023-09-19T00:05:21;16.10;99.90
11538;DHT22;50159;49.426;11.182;2023-09-19T00:07:53;16.10;99.90
11538;DHT22;50159;49.426;11.182;2023-09-19T00:10:26;16.10;99.90
11538;DHT22;50159;49.426;11.182;2023-09-19T00:12:54;16.10;99.90
11538;DHT22;50159;49.426;11.182;2023-09-19T00:15:22;16.10;99.90
11538;DHT22;50159;49.426;11.182;2023-09-19T00:17:49;16.00;99.90
11538;DHT22;50159;49.426;11.182;2023-09-19T00:20:20;16.00;99.90
11538;DHT22;50159;49.426;11.182;2023-09-19T00:22:50;15.90;99.90
11538;DHT22;50159;49.426;11.182;2023-09-19T00:25:20;15.90;99.90
11538;DHT22;50159;49.426;11.182;2023-09-19T00:27:47;15.80;99.90
11538;DHT22;50159;49.426;11.182;2023-09-19T00:30:16;15.80;99.90
11538;DHT22;50159;49.426;11.182;2023-09-19T00:32:47;15.80;99.90
11538;DHT22;50159;49.426;11.182;2023-09-19T00:35:14;15.80;99.90
11538;DHT22;50159;49.426;11.182;2023-09-19T00:37:45;15.80;99.90
11538;DHT22;50159;49.426;11.182;2023-09-19T00:40:12;15.80;99.90
11538;DHT22;50159;49.426;11.182;2023-09-19T00:42:39;15.80;99.90
11538;DHT22;50159;49.426;11.182;2023-09-19T00:45:11;15.80;99.90
11538;DHT22;50159;49.426;11.182;2023-09-19T00:47:49;15.80;99.90
11538;DHT22;50159;49.426;11.182;2023-09-19T00:50:17;15.70;99.90
11538;DHT22;50159;49.426;11.182;2023-09-19T00:52:49;15.70;99.90
11538;DHT22;50159;49.426;11.182;2023-09-19T00:55:17;15.70;99.90
11538;DHT22;50159;49.426;11.182;2023-09-19T00:57:47;15.70;99.90
11538;DHT22;50159;49.426;11.182;2023-09-19T01:00:17;15.60;99.90
11538;DHT22;50159;49.426;11.182;2023-09-19T01:02:46;15.60;99.90
11538;DHT22;50159;49.426;11.182;2023-09-19T01:05:13;15.60;99.90
11538;DHT22;50159;49.426;11.182;2023-09-19T01:07:40;15.60;99.90
11538;DHT22;50159;49.426;11.182;2023-09-19T01:10:12;15.60;99.90
11538;DHT22;50159;49.426;11.182;2023-09-19T01:13:09;15.50;99.90
11538;DHT22;50159;49.426;11.182;2023-09-19T01:21:31;15.40;99.90
11538;DHT22;50159;49.426;11.182;2023-09-19T01:29:34;15.40;99.90
11538;DHT22;50159;49.426;11.182;2023-09-19T01:32:07;15.30;99.90
11538;DHT22;50159;49.426;11.182;2023-09-19T01:35:04;15.30;99.90
11538;DHT22;50159;49.426;11.182;2023-09-19T01:37:31;15.40;99.90
11538;DHT22;50159;49.426;11.182;2023-09-19T01:40:04;15.30;99.90
11538;DHT22;50159;49.426;11.182;2023-09-19T01:46:13;15.40;99.90
11538;DHT22;50159;49.426;11.182;2023-09-19T01:49:03;15.40;99.90
11538;DHT22;50159;49.426;11.182;2023-09-19T01:51:37;15.40;99.90
11538;DHT22;50159;49.426;11.182;2023-09-19T01:54:11;15.40;99.90
11538;DHT22;50159;49.426;11.182;2023-09-19T01:59:15;15.40;99.90
11538;DHT22;50159;49.426;11.182;2023-09-19T02:01:44;15.40;99.90
11538;DHT22;50159;49.426;11.182;2023-09-19T02:04:12;15.40;99.90
11538;DHT22;50159;49.426;11.182;2023-09-19T02:06:41;15.40;99.90
11538;DHT22;50159;49.426;11.182;2023-09-19T02:09:08;15.40;99.90
11538;DHT22;50159;49.426;11.182;2023-09-19T02:11:35;15.40;99.90
11538;DHT22;50159;49.426;11.182;2023-09-19T02:14:03;15.40;99.90
11538;DHT22;50159;49.426;11.182;2023-09-19T02:16:31;15.40;99.90
11538;DHT22;50159;49.426;11.182;2023-09-19T02:18:58;15.40;99.90
11538;DHT22;50159;49.426;11.182;2023-09-19T02:21:26;15.40;99.90
11538;DHT22;50159;49.426;11.182;2023-09-19T02:23:56;15.40;99.90
11538;DHT22;50159;49.426;11.182;2023-09-19T02:26:23;15.50;99.90
11538;DHT22;50159;49.426;11.182;2023-09-19T02:28:50;15.50;99.90
11538;DHT22;50159;49.426;11.182;2023-09-19T02:31:17;15.50;99.90
11538;DHT22;50159;49.426;11.182;2023-09-19T02:33:44;15.50;99.90
11538;DHT22;50159;49.426;11.182;2023-09-19T02:36:10;15.50;99.90
11538;DHT22;50159;49.426;11.182;2023-09-19T02:38:37;15.40;99.90
11538;DHT22;50159;49.426;11.182;2023-09-19T02:41:04;15.40;99.90
11538;DHT22;50159;49.426;11.182;2023-09-19T02:43:30;15.40;99.90
11538;DHT22;50159;49.426;11.182;2023-09-19T02:45:57;15.40;99.90
11538;DHT22;50159;49.426;11.182;2023-09-19T02:48:24;15.50;99.90
11538;DHT22;50159;49.426;11.182;2023-09-19T02:50:52;15.50;99.90
11538;DHT22;50159;49.426;11.182;2023-09-19T02:53:19;15.50;99.90
11538;DHT22;50159;49.426;11.182;2023-09-19T02:55:46;15.50;99.90
11538;DHT22;50159;49.426;11.182;2023-09-19T02:58:13;15.50;99.90
11538;DHT22;50159;49.426;11.182;2023-09-19T03:00:41;15.50;99.90
11538;DHT22;50159;49.426;11.182;2023-09-19T03:03:08;15.50;99.90
11538;DHT22;50159;49.426;11.182;2023-09-19T03:05:36;15.50;99.90
11538;DHT22;50159;49.426;11.182;2023-09-19T03:08:04;15.50;99.90
11538;DHT22;50159;49.426;11.182;2023-09-19T03:10:32;15.50;99.90
11538;DHT22;50159;49.426;11.182;2023-09-19T03:12:59;15.50;99.90
11538;DHT22;50159;49.426;11.182;2023-09-19T03:15:29;15.50;99.90
11538;DHT22;50159;49.426;11.182;2023-09-19T03:17:56;15.50;99.90
11538;DHT22;50159;49.426;11.182;2023-09-19T03:20:22;15.50;99.90
11538;DHT22;50159;49.426;11.182;2023-09-19T03:22:49;15.50;99.90
11538;DHT22;50159;49.426;11.182;2023-09-19T03:25:16;15.50;99.90
11538;DHT22;50159;49.426;11.182;2023-09-19T03:27:44;15.50;99.90
11538;DHT22;50159;49.426;11.182;2023-09-19T03:30:10;15.50;99.90
11538;DHT22;50159;49.426;11.182;2023-09-19T03:32:49;15.50;99.90
11538;DHT22;50159;49.426;11.182;2023-09-19T03:35:17;15.50;99.90
11538;DHT22;50159;49.426;11.182;2023-09-19T03:37:44;15.50;99.90
11538;DHT22;50159;49.426;11.182;2023-09-19T03:40:12;15.40;99.90
11538;DHT22;50159;49.426;11.182;2023-09-19T03:42:40;15.40;99.90
11538;DHT22;50159;49.426;11.182;2023-09-19T03:45:08;15.40;99.90
11538;DHT22;50159;49.426;11.182;2023-09-19T03:47:39;15.30;99.90
11538;DHT22;50159;49.426;11.182;2023-09-19T03:50:06;15.30;99.90
11538;DHT22;50159;49.426;11.182;2023-09-19T03:52:38;15.20;99.90
11538;DHT22;50159;49.426;11.182;2023-09-19T03:55:04;15.20;99.90
11538;DHT22;50159;49.426;11.182;2023-09-19T03:57:32;15.20;99.90
11538;DHT22;50159;49.426;11.182;2023-09-19T03:59:59;15.20;99.90
11538;DHT22;50159;49.426;11.182;2023-09-19T04:02:25;15.20;99.90
11538;DHT22;50159;49.426;11.182;2023-09-19T04:04:52;15.10;99.90
11538;DHT22;50159;49.426;11.182;2023-09-19T04:07:19;15.10;99.90
11538;DHT22;50159;49.426;11.182;2023-09-19T04:09:49;15.10;99.90
11538;DHT22;50159;49.426;11.182;2023-09-19T04:12:16;15.10;99.90
11538;DHT22;50159;49.426;11.182;2023-09-19T04:14:46;15.10;99.90
11538;DHT22;50159;49.426;11.182;2023-09-19T04:17:12;15.00;99.90
11538;DHT22;50159;49.426;11.182;2023-09-19T04:19:39;15.00;99.90
11538;DHT22;50159;49.426;11.182;2023-09-19T04:22:08;15.00;99.90
11538;DHT22;50159;49.426;11.182;2023-09-19T04:24:35;15.00;99.90
11538;DHT22;50159;49.426;11.182;2023-09-19T04:27:02;15.00;99.90
11538;DHT22;50159;49.426;11.182;2023-09-19T04:29:29;15.00;99.90
11538;DHT22;50159;49.426;11.182;2023-09-19T04:31:56;15.00;99.90
11538;DHT22;50159;49.426;11.182;2023-09-19T04:34:26;15.00;99.90
11538;DHT22;50159;49.426;11.182;2023-09-19T04:36:52;15.00;99.90
11538;DHT22;50159;49.426;11.182;2023-09-19T04:39:19;15.00;99.90
11538;DHT22;50159;49.426;11.182;2023-09-19T04:41:47;15.00;99.90
11538;DHT22;50159;49.426;11.182;2023-09-19T04:44:14;15.10;99.90
11538;DHT22;50159;49.426;11.182;2023-09-19T04:46:42;15.10;99.90
11538;DHT22;50159;49.426;11.182;2023-09-19T04:49:09;15.10;99.90
11538;DHT22;50159;49.426;11.182;2023-09-19T04:51:35;15.20;99.90
11538;DHT22;50159;49.426;11.182;2023-09-19T04:54:03;15.20;99.90
11538;DHT22;50159;49.426;11.182;2023-09-19T04:56:30;15.20;99.90
11538;DHT22;50159;49.426;11.182;2023-09-19T04:58:58;15.30;99.90
11538;DHT22;50159;49.426;11.182;2023-09-19T05:01:25;15.30;99.90
11538;DHT22;50159;49.426;11.182;2023-09-19T05:03:52;15.30;99.90
11538;DHT22;50159;49.426;11.182;2023-09-19T05:06:20;15.20;99.90
11538;DHT22;50159;49.426;11.182;2023-09-19T05:08:50;15.30;99.90
11538;DHT22;50159;49.426;11.182;2023-09-19T05:11:19;15.40;99.90
11538;DHT22;50159;49.426;11.182;2023-09-19T05:13:49;15.40;99.90
11538;DHT22;50159;49.426;11.182;2023-09-19T05:16:22;15.40;99.90
11538;DHT22;50159;49.426;11.182;2023-09-19T05:18:49;15.40;99.90
11538;DHT22;50159;49.426;11.182;2023-09-19T05:21:16;15.40;99.90
11538;DHT22;50159;49.426;11.182;2023-09-19T05:23:44;15.40;99.90
11538;DHT22;50159;49.426;11.182;2023-09-19T05:26:12;15.40;99.90
11538;DHT22;50159;49.426;11.182;2023-09-19T05:28:44;15.40;99.90
11538;DHT22;50159;49.426;11.182;2023-09-19T05:31:11;15.40;99.90
11538;DHT22;50159;49.426;11.182;2023-09-19T05:33:37;15.40;99.90
11538;DHT22;50159;49.426;11.182;2023-09-19T05:36:05;15.40;99.90
11538;DHT22;50159;49.426;11.182;2023-09-19T05:38:31;15.40;99.90
11538;DHT22;50159;49.426;11.182;2023-09-19T05:40:59;15.40;99.90
11538;DHT22;50159;49.426;11.182;2023-09-19T05:43:25;15.40;99.90
11538;DHT22;50159;49.426;11.182;2023-09-19T05:45:52;15.40;99.90
11538;DHT22;50159;49.426;11.182;2023-09-19T05:48:19;15.40;99.90
11538;DHT22;50159;49.426;11.182;2023-09-19T05:50:47;15.50;99.90
11538;DHT22;50159;49.426;11.182;2023-09-19T05:53:15;15.50;99.90
11538;DHT22;50159;49.426;11.182;2023-09-19T05:55:42;15.50;99.90
11538;DHT22;50159;49.426;11.182;2023-09-19T05:58:09;15.50;99.90
11538;DHT22;50159;49.426;11.182;2023-09-19T06:00:40;15.50;99.90
11538;DHT22;50159;49.426;11.182;2023-09-19T06:03:09;15.50;99.90
11538;DHT22;50159;49.426;11.182;2023-09-19T06:05:36;15.60;99.90
11538;DHT22;50159;49.426;11.182;2023-09-19T06:08:03;15.60;99.90
11538;DHT22;50159;49.426;11.182;2023-09-19T06:10:34;15.60;99.90
11538;DHT22;50159;49.426;11.182;2023-09-19T06:13:04;15.60;99.90
11538;DHT22;50159;49.426;11.182;2023-09-19T06:15:32;15.60;99.90
11538;DHT22;50159;49.426;11.182;2023-09-19T06:18:00;15.60;99.90
11538;DHT22;50159;49.426;11.182;2023-09-19T06:20:29;15.70;99.90
11538;DHT22;50159;49.426;11.182;2023-09-19T06:22:56;15.70;99.90
11538;DHT22;50159;49.426;11.182;2023-09-19T06:25:23;15.70;99.90
11538;DHT22;50159;49.426;11.182;2023-09-19T06:27:51;15.80;99.90
11538;DHT22;50159;49.426;11.182;2023-09-19T06:30:23;15.80;99.90
11538;DHT22;50159;49.426;11.182;2023-09-19T06:33:00;15.90;99.90
11538;DHT22;50159;49.426;11.182;2023-09-19T06:35:28;15.90;99.90
11538;DHT22;50159;49.426;11.182;2023-09-19T06:38:02;16.00;99.90
11538;DHT22;50159;49.426;11.182;2023-09-19T06:40:29;16.10;99.90
11538;DHT22;50159;49.426;11.182;2023-09-19T06:42:57;16.10;99.90
11538;DHT22;50159;49.426;11.182;2023-09-19T06:45:24;16.30;99.90
11538;DHT22;50159;49.426;11.182;2023-09-19T06:47:53;16.40;99.90
11538;DHT22;50159;49.426;11.182;2023-09-19T06:50:24;16.50;99.90
11538;DHT22;50159;49.426;11.182;2023-09-19T06:52:52;16.60;99.90
11538;DHT22;50159;49.426;11.182;2023-09-19T06:55:21;16.70;99.90
11538;DHT22;50159;49.426;11.182;2023-09-19T06:57:50;16.90;99.90
11538;DHT22;50159;49.426;11.182;2023-09-19T07:00:17;17.00;99.90
11538;DHT22;50159;49.426;11.182;2023-09-19T07:03:01;17.10;99.90
11538;DHT22;50159;49.426;11.182;2023-09-19T07:05:31;17.20;99.90
11538;DHT22;50159;49.426;11.182;2023-09-19T07:08:01;17.30;99.90
11538;DHT22;50159;49.426;11.182;2023-09-19T07:10:29;17.40;99.90
11538;DHT22;50159;49.426;11.182;2023-09-19T07:13:06;17.60;99.90
11538;DHT22;50159;49.426;11.182;2023-09-19T07:15:38;17.70;99.90
11538;DHT22;50159;49.426;11.182;2023-09-19T07:18:08;17.80;99.90
11538;DHT22;50159;49.426;11.182;2023-09-19T07:20:37;17.90;99.90
11538;DHT22;50159;49.426;11.182;2023-09-19T07:23:04;18.00;99.90
11538;DHT22;50159;49.426;11.182;2023-09-19T07:25:32;18.00;99.90
11538;DHT22;50159;49.426;11.182;2023-09-19T07:27:59;18.00;99.90
11538;DHT22;50159;49.426;11.182;2023-09-19T07:30:27;17.90;99.90
11538;DHT22;50159;49.426;11.182;2023-09-19T07:32:57;17.90;99.90
11538;DHT22;50159;49.426;11.182;2023-09-19T07:35:24;17.90;99.90
11538;DHT22;50159;49.426;11.182;2023-09-19T07:37:52;17.90;99.90
11538;DHT22;50159;49.426;11.182;2023-09-19T07:40:19;17.90;99.90
11538;DHT22;50159;49.426;11.182;2023-09-19T07:42:47;17.90;99.90
11538;DHT22;50159;49.426;11.182;2023-09-19T07:45:14;18.00;99.90
11538;DHT22;50159;49.426;11.182;2023-09-19T07:47:48;18.20;99.90
11538;DHT22;50159;49.426;11.182;2023-09-19T07:50:16;18.20;99.90
11538;DHT22;50159;49.426;11.182;2023-09-19T07:52:49;18.20;99.90
11538;DHT22;50159;49.426;11.182;2023-09-19T07:55:22;18.20;99.90
11538;DHT22;50159;49.426;11.182;2023-09-19T07:57:52;18.20;99.90
11538;DHT22;50159;49.426;11.182;2023-09-19T08:00:19;18.10;99.90
11538;DHT22;50159;49.426;11.182;2023-09-19T08:02:46;18.00;99.90
11538;DHT22;50159;49.426;11.182;2023-09-19T08:05:22;18.00;99.90
11538;DHT22;50159;49.426;11.182;2023-09-19T08:07:49;18.00;99.90
11538;DHT22;50159;49.426;11.182;2023-09-19T08:10:16;18.00;99.90
11538;DHT22;50159;49.426;11.182;2023-09-19T08:12:47;18.00;99.90
11538;DHT22;50159;49.426;11.182;2023-09-19T08:15:19;18.10;99.90
11538;DHT22;50159;49.426;11.182;2023-09-19T08:17:47;18.30;99.90
11538;DHT22;50159;49.426;11.182;2023-09-19T08:20:14;18.40;99.90
11538;DHT22;50159;49.426;11.182;2023-09-19T08:22:49;18.60;99.90
11538;DHT22;50159;49.426;11.182;2023-09-19T08:25:19;18.80;99.90
11538;DHT22;50159;49.426;11.182;2023-09-19T08:27:46;18.90;99.90
11538;DHT22;50159;49.426;11.182;2023-09-19T08:30:18;18.90;99.90
11538;DHT22;50159;49.426;11.182;2023-09-19T08:32:45;18.80;99.90
11538;DHT22;50159;49.426;11.182;2023-09-19T08:35:12;18.70;99.90
11538;DHT22;50159;49.426;11.182;2023-09-19T08:37:39;18.70;99.90
11538;DHT22;50159;49.426;11.182;2023-09-19T08:40:06;18.80;99.90
11538;DHT22;50159;49.426;11.182;2023-09-19T08:42:53;18.90;99.90
11538;DHT22;50159;49.426;11.182;2023-09-19T08:45:24;19.10;99.90
11538;DHT22;50159;49.426;11.182;2023-09-19T08:48:16;19.20;99.90
11538;DHT22;50159;49.426;11.182;2023-09-19T08:50:56;19.20;99.90
11538;DHT22;50159;49.426;11.182;2023-09-19T08:53:51;19.30;99.90
11538;DHT22;50159;49.426;11.182;2023-09-19T08:56:19;19.30;99.90
11538;DHT22;50159;49.426;11.182;2023-09-19T08:58:55;19.30;99.70
11538;DHT22;50159;49.426;11.182;2023-09-19T09:01:23;19.30;99.50
11538;DHT22;50159;49.426;11.182;2023-09-19T09:03:54;19.30;99.70
11538;DHT22;50159;49.426;11.182;2023-09-19T09:06:22;19.40;99.20
11538;DHT22;50159;49.426;11.182;2023-09-19T09:08:50;19.30;99.50
11538;DHT22;50159;49.426;11.182;2023-09-19T09:11:18;19.50;99.70
11538;DHT22;50159;49.426;11.182;2023-09-19T09:13:45;19.50;98.40
11538;DHT22;50159;49.426;11.182;2023-09-19T09:16:13;19.50;98.10
11538;DHT22;50159;49.426;11.182;2023-09-19T09:18:41;19.50;98.90
11538;DHT22;50159;49.426;11.182;2023-09-19T09:21:07;19.60;99.20
11538;DHT22;50159;49.426;11.182;2023-09-19T09:23:37;19.70;98.90
11538;DHT22;50159;49.426;11.182;2023-09-19T09:26:05;19.90;98.60
11538;DHT22;50159;49.426;11.182;2023-09-19T09:28:34;19.90;97.10
11538;DHT22;50159;49.426;11.182;2023-09-19T09:31:03;20.00;96.90
11538;DHT22;50159;49.426;11.182;2023-09-19T09:33:35;20.10;96.30
11538;DHT22;50159;49.426;11.182;2023-09-19T09:36:03;20.20;95.80
11538;DHT22;50159;49.426;11.182;2023-09-19T09:38:43;20.30;95.70
11538;DHT22;50159;49.426;11.182;2023-09-19T09:41:11;20.20;94.80
11538;DHT22;50159;49.426;11.182;2023-09-19T09:43:53;20.10;94.10
11538;DHT22;50159;49.426;11.182;2023-09-19T09:46:21;20.10;94.70
11538;DHT22;50159;49.426;11.182;2023-09-19T09:51:42;19.80;93.00
11538;DHT22;50159;49.426;11.182;2023-09-19T09:54:13;19.70;92.80
11538;DHT22;50159;49.426;11.182;2023-09-19T09:56:57;19.70;92.80
11538;DHT22;50159;49.426;11.182;2023-09-19T09:59:50;19.70;92.30
11538;DHT22;50159;49.426;11.182;2023-09-19T10:02:25;19.80;92.90
11538;DHT22;50159;49.426;11.182;2023-09-19T10:04:56;19.90;92.70
11538;DHT22;50159;49.426;11.182;2023-09-19T10:07:41;20.20;93.40
11538;DHT22;50159;49.426;11.182;2023-09-19T10:12:58;20.10;91.70
11538;DHT22;50159;49.426;11.182;2023-09-19T10:15:32;19.90;91.60
11538;DHT22;50159;49.426;11.182;2023-09-19T10:18:01;19.90;91.80
11538;DHT22;50159;49.426;11.182;2023-09-19T10:20:31;20.00;92.20
11538;DHT22;50159;49.426;11.182;2023-09-19T10:23:07;20.20;91.30
11538;DHT22;50159;49.426;11.182;2023-09-19T10:25:41;20.30;91.50
11538;DHT22;50159;49.426;11.182;2023-09-19T10:28:10;20.50;91.30
11538;DHT22;50159;49.426;11.182;2023-09-19T10:30:47;20.70;89.90
11538;DHT22;50159;49.426;11.182;2023-09-19T10:33:15;20.90;90.20
11538;DHT22;50159;49.426;11.182;2023-09-19T10:35:44;20.90;90.00
11538;DHT22;50159;49.426;11.182;2023-09-19T10:38:14;20.80;90.60
11538;DHT22;50159;49.426;11.182;2023-09-19T10:40:49;20.70;90.80
11538;DHT22;50159;49.426;11.182;2023-09-19T10:43:18;20.50;90.50
11538;DHT22;50159;49.426;11.182;2023-09-19T10:45:45;20.30;91.30
11538;DHT22;50159;49.426;11.182;2023-09-19T10:48:17;20.40;92.20
11538;DHT22;50159;49.426;11.182;2023-09-19T10:51:10;20.60;91.60
11538;DHT22;50159;49.426;11.182;2023-09-19T10:53:48;20.50;90.50
11538;DHT22;50159;49.426;11.182;2023-09-19T10:56:21;20.70;91.00
11538;DHT22;50159;49.426;11.182;2023-09-19T10:58:50;20.90;90.60
11538;DHT22;50159;49.426;11.182;2023-09-19T11:01:18;21.10;86.90
11538;DHT22;50159;49.426;11.182;2023-09-19T11:03:45;21.30;85.40
11538;DHT22;50159;49.426;11.182;2023-09-19T11:06:14;21.50;84.30
11538;DHT22;50159;49.426;11.182;2023-09-19T11:08:55;21.60;78.60
11538;DHT22;50159;49.426;11.182;2023-09-19T11:14:29;21.60;77.60
11538;DHT22;50159;49.426;11.182;2023-09-19T11:30:37;22.30;67.20
11538;DHT22;50159;49.426;11.182;2023-09-19T11:33:23;22.20;67.90
11538;DHT22;50159;49.426;11.182;2023-09-19T11:36:13;22.20;68.30
11538;DHT22;50159;49.426;11.182;2023-09-19T11:46:27;21.90;71.30
11538;DHT22;50159;49.426;11.182;2023-09-19T11:48:54;22.10;71.80
11538;DHT22;50159;49.426;11.182;2023-09-19T11:51:23;22.30;70.20
11538;DHT22;50159;49.426;11.182;2023-09-19T11:53:57;22.40;68.00
11538;DHT22;50159;49.426;11.182;2023-09-19T11:56:27;22.60;65.50
11538;DHT22;50159;49.426;11.182;2023-09-19T11:58:57;22.80;64.30
11538;DHT22;50159;49.426;11.182;2023-09-19T12:01:33;22.80;63.30
11538;DHT22;50159;49.426;11.182;2023-09-19T12:04:02;22.90;62.30
11538;DHT22;50159;49.426;11.182;2023-09-19T12:06:31;23.10;63.40
11538;DHT22;50159;49.426;11.182;2023-09-19T12:09:02;23.20;63.80
11538;DHT22;50159;49.426;11.182;2023-09-19T12:11:33;23.20;62.80
11538;DHT22;50159;49.426;11.182;2023-09-19T12:14:07;22.90;61.10
11538;DHT22;50159;49.426;11.182;2023-09-19T12:16:34;22.60;63.90
11538;DHT22;50159;49.426;11.182;2023-09-19T12:19:18;22.40;65.20
11538;DHT22;50159;49.426;11.182;2023-09-19T12:21:57;22.10;63.70
11538;DHT22;50159;49.426;11.182;2023-09-19T12:24:26;22.20;65.20
11538;DHT22;50159;49.426;11.182;2023-09-19T12:27:03;22.50;65.70
11538;DHT22;50159;49.426;11.182;2023-09-19T12:29:45;22.90;65.80
11538;DHT22;50159;49.426;11.182;2023-09-19T12:32:12;23.20;63.30
11538;DHT22;50159;49.426;11.182;2023-09-19T12:34:40;23.40;61.30
11538;DHT22;50159;49.426;11.182;2023-09-19T12:37:14;23.60;60.90
11538;DHT22;50159;49.426;11.182;2023-09-19T12:40:10;23.60;59.90
11538;DHT22;50159;49.426;11.182;2023-09-19T12:42:49;23.50;60.40
11538;DHT22;50159;49.426;11.182;2023-09-19T12:45:16;23.60;61.10
11538;DHT22;50159;49.426;11.182;2023-09-19T12:51:01;23.60;59.20
11538;DHT22;50159;49.426;11.182;2023-09-19T12:53:40;23.60;61.10
11538;DHT22;50159;49.426;11.182;2023-09-19T12:56:11;23.80;61.60
11538;DHT22;50159;49.426;11.182;2023-09-19T12:58:56;23.80;59.80
11538;DHT22;50159;49.426;11.182;2023-09-19T13:01:24;23.40;58.80
11538;DHT22;50159;49.426;11.182;2023-09-19T13:04:15;23.20;61.50
11538;DHT22;50159;49.426;11.182;2023-09-19T13:06:47;23.40;62.00
11538;DHT22;50159;49.426;11.182;2023-09-19T13:09:17;23.60;60.80
11538;DHT22;50159;49.426;11.182;2023-09-19T13:11:44;23.90;60.80
11538;DHT22;50159;49.426;11.182;2023-09-19T13:14:20;24.10;60.70
11538;DHT22;50159;49.426;11.182;2023-09-19T13:17:00;24.10;59.30
11538;DHT22;50159;49.426;11.182;2023-09-19T13:19:51;24.00;58.70
11538;DHT22;50159;49.426;11.182;2023-09-19T13:22:42;24.20;60.80
11538;DHT22;50159;49.426;11.182;2023-09-19T13:25:14;24.50;59.70
11538;DHT22;50159;49.426;11.182;2023-09-19T13:27:50;24.30;58.90
11538;DHT22;50159;49.426;11.182;2023-09-19T13:30:25;24.40;58.50
11538;DHT22;50159;49.426;11.182;2023-09-19T13:33:03;24.40;57.60
11538;DHT22;50159;49.426;11.182;2023-09-19T13:35:32;24.50;57.80
11538;DHT22;50159;49.426;11.182;2023-09-19T13:37:59;24.80;57.80
11538;DHT22;50159;49.426;11.182;2023-09-19T13:40:28;24.80;57.70
11538;DHT22;50159;49.426;11.182;2023-09-19T13:42:57;24.90;56.80
11538;DHT22;50159;49.426;11.182;2023-09-19T13:45:24;25.00;56.50
11538;DHT22;50159;49.426;11.182;2023-09-19T13:47:51;24.90;55.90
11538;DHT22;50159;49.426;11.182;2023-09-19T13:50:18;24.80;56.30
11538;DHT22;50159;49.426;11.182;2023-09-19T13:52:50;24.20;55.80
11538;DHT22;50159;49.426;11.182;2023-09-19T13:55:17;24.00;57.40
11538;DHT22;50159;49.426;11.182;2023-09-19T13:57:47;24.20;57.10
11538;DHT22;50159;49.426;11.182;2023-09-19T14:00:21;24.20;57.00
11538;DHT22;50159;49.426;11.182;2023-09-19T14:02:49;23.70;56.90
11538;DHT22;50159;49.426;11.182;2023-09-19T14:05:18;23.20;57.40
11538;DHT22;50159;49.426;11.182;2023-09-19T14:07:45;23.10;59.50
11538;DHT22;50159;49.426;11.182;2023-09-19T14:10:13;23.40;58.70
11538;DHT22;50159;49.426;11.182;2023-09-19T14:12:40;23.30;60.10
11538;DHT22;50159;49.426;11.182;2023-09-19T14:15:11;25.50;59.40
11538;DHT22;50159;49.426;11.182;2023-09-19T14:17:39;26.90;52.30
11538;DHT22;50159;49.426;11.182;2023-09-19T14:20:09;27.70;52.90
11538;DHT22;50159;49.426;11.182;2023-09-19T14:22:37;29.10;47.90
11538;DHT22;50159;49.426;11.182;2023-09-19T14:25:05;30.50;44.80
11538;DHT22;50159;49.426;11.182;2023-09-19T14:27:31;30.70;41.40
11538;DHT22;50159;49.426;11.182;2023-09-19T14:29:58;29.70;40.60
11538;DHT22;50159;49.426;11.182;2023-09-19T14:32:25;28.10;43.40
11538;DHT22;50159;49.426;11.182;2023-09-19T14:34:52;26.90;46.00
11538;DHT22;50159;49.426;11.182;2023-09-19T14:37:19;25.70;48.60
11538;DHT22;50159;49.426;11.182;2023-09-19T14:39:47;25.10;51.60
11538;DHT22;50159;49.426;11.182;2023-09-19T14:42:14;24.60;54.30
11538;DHT22;50159;49.426;11.182;2023-09-19T14:44:44;24.40;54.00
11538;DHT22;50159;49.426;11.182;2023-09-19T14:47:10;24.30;53.60
11538;DHT22;50159;49.426;11.182;2023-09-19T14:49:40;24.10;54.00
11538;DHT22;50159;49.426;11.182;2023-09-19T14:52:08;23.90;54.20
11538;DHT22;50159;49.426;11.182;2023-09-19T14:54:35;23.70;54.40
11538;DHT22;50159;49.426;11.182;2023-09-19T14:57:07;23.60;55.30
11538;DHT22;50159;49.426;11.182;2023-09-19T14:59:35;23.70;56.50
11538;DHT22;50159;49.426;11.182;2023-09-19T15:02:05;23.60;56.70
11538;DHT22;50159;49.426;11.182;2023-09-19T15:04:32;23.60;56.20
11538;DHT22;50159;49.426;11.182;2023-09-19T15:07:00;23.60;56.20
11538;DHT22;50159;49.426;11.182;2023-09-19T15:09:27;23.60;57.90
11538;DHT22;50159;49.426;11.182;2023-09-19T15:11:54;23.60;57.30
11538;DHT22;50159;49.426;11.182;2023-09-19T15:14:21;23.70;58.20
11538;DHT22;50159;49.426;11.182;2023-09-19T15:16:49;23.80;58.60
11538;DHT22;50159;49.426;11.182;2023-09-19T15:19:15;23.80;57.50
11538;DHT22;50159;49.426;11.182;2023-09-19T15:21:43;23.70;58.10
11538;DHT22;50159;49.426;11.182;2023-09-19T15:24:10;23.40;58.20
11538;DHT22;50159;49.426;11.182;2023-09-19T15:26:37;23.10;58.10
11538;DHT22;50159;49.426;11.182;2023-09-19T15:29:07;23.00;58.90
11538;DHT22;50159;49.426;11.182;2023-09-19T15:31:34;22.90;59.10
11538;DHT22;50159;49.426;11.182;2023-09-19T15:34:03;23.20;59.80
11538;DHT22;50159;49.426;11.182;2023-09-19T15:36:30;23.30;59.80
11538;DHT22;50159;49.426;11.182;2023-09-19T15:39:02;23.20;58.90
11538;DHT22;50159;49.426;11.182;2023-09-19T15:41:40;23.00;58.50
11538;DHT22;50159;49.426;11.182;2023-09-19T15:44:12;22.60;59.80
11538;DHT22;50159;49.426;11.182;2023-09-19T15:46:40;22.30;61.50
11538;DHT22;50159;49.426;11.182;2023-09-19T15:49:07;22.10;61.30
11538;DHT22;50159;49.426;11.182;2023-09-19T15:51:34;21.90;61.30
11538;DHT22;50159;49.426;11.182;2023-09-19T15:54:12;21.70;61.90
11538;DHT22;50159;49.426;11.182;2023-09-19T15:56:42;21.50;63.00
11538;DHT22;50159;49.426;11.182;2023-09-19T15:59:11;21.40;63.90
11538;DHT22;50159;49.426;11.182;2023-09-19T16:01:43;21.20;63.10
11538;DHT22;50159;49.426;11.182;2023-09-19T16:04:11;21.10;63.90
11538;DHT22;50159;49.426;11.182;2023-09-19T16:06:39;21.00;63.90
11538;DHT22;50159;49.426;11.182;2023-09-19T16:09:06;20.90;64.20
11538;DHT22;50159;49.426;11.182;2023-09-19T16:11:33;20.90;64.50
11538;DHT22;50159;49.426;11.182;2023-09-19T16:14:02;20.80;64.80
11538;DHT22;50159;49.426;11.182;2023-09-19T16:16:29;20.80;65.10
11538;DHT22;50159;49.426;11.182;2023-09-19T16:19:00;20.70;65.80
11538;DHT22;50159;49.426;11.182;2023-09-19T16:21:31;20.60;65.30
11538;DHT22;50159;49.426;11.182;2023-09-19T16:23:59;20.60;64.60